sensor_id;sensor_type;location;lat;lon;timestamp;pressure;altitude;pressure_sealevel;temperature;humidity
61086;BME280;46967;48.876;2.136;2023-02-20T00:00:08;102820.16;;;5.89;84.66
61086;BME280;46967;48.876;2.136;2023-02-20T00:02:34;102822.69;;;5.88;84.65
61086;BME280;46967;48.876;2.136;2023-02-20T00:05:00;102815.66;;;5.79;85.18
61086;BME280;46967;48.876;2.136;2023-02-20T00:07:25;102824.81;;;5.68;86.05
61086;BME280;46967;48.876;2.136;2023-02-20T00:09:50;102814.50;;;5.68;85.29
61086;BME280;46967;48.876;2.136;2023-02-20T00:12:16;102818.00;;;5.70;85.32
61086;BME280;46967;48.876;2.136;2023-02-20T00:14:41;102805.16;;;5.71;84.60
61086;BME280;46967;48.876;2.136;2023-02-20T00:17:06;102802.59;;;5.71;84.49
61086;BME280;46967;48.876;2.136;2023-02-20T00:19:32;102802.41;;;5.63;85.47
61086;BME280;46967;48.876;2.136;2023-02-20T00:21:57;102803.13;;;5.58;85.86
61086;BME280;46967;48.876;2.136;2023-02-20T00:24:22;102791.88;;;5.53;85.69
61086;BME280;46967;48.876;2.136;2023-02-20T00:26:50;102801.38;;;5.55;85.43
61086;BME280;46967;48.876;2.136;2023-02-20T00:29:25;102790.09;;;5.52;85.47
61086;BME280;46967;48.876;2.136;2023-02-20T00:31:52;102785.81;;;5.51;85.76
61086;BME280;46967;48.876;2.136;2023-02-20T00:34:18;102797.84;;;5.52;85.20
61086;BME280;46967;48.876;2.136;2023-02-20T00:36:44;102790.91;;;5.48;86.43
61086;BME280;46967;48.876;2.136;2023-02-20T00:39:09;102789.97;;;5.44;86.54
61086;BME280;46967;48.876;2.136;2023-02-20T00:41:34;102789.03;;;5.42;86.59
61086;BME280;46967;48.876;2.136;2023-02-20T00:44:00;102793.28;;;5.40;86.88
61086;BME280;46967;48.876;2.136;2023-02-20T00:46:25;102791.53;;;5.39;86.30
61086;BME280;46967;48.876;2.136;2023-02-20T00:48:50;102795.72;;;5.34;86.36
61086;BME280;46967;48.876;2.136;2023-02-20T00:51:16;102785.38;;;5.32;86.10
61086;BME280;46967;48.876;2.136;2023-02-20T00:53:41;102789.59;;;5.29;85.95
61086;BME280;46967;48.876;2.136;2023-02-20T00:56:07;102787.72;;;5.23;86.15
61086;BME280;46967;48.876;2.136;2023-02-20T00:58:32;102787.66;;;5.20;86.12
61086;BME280;46967;48.876;2.136;2023-02-20T01:00:57;102779.09;;;5.21;86.26
61086;BME280;46967;48.876;2.136;2023-02-20T01:03:23;102775.66;;;5.20;85.81
61086;BME280;46967;48.876;2.136;2023-02-20T01:05:48;102776.47;;;5.18;85.89
61086;BME280;46967;48.876;2.136;2023-02-20T01:08:13;102776.50;;;5.19;85.77
61086;BME280;46967;48.876;2.136;2023-02-20T01:10:39;102779.09;;;5.21;85.13
61086;BME280;46967;48.876;2.136;2023-02-20T01:13:04;102789.31;;;5.18;85.67
61086;BME280;46967;48.876;2.136;2023-02-20T01:15:29;102780.75;;;5.17;85.07
61086;BME280;46967;48.876;2.136;2023-02-20T01:17:55;102776.38;;;5.15;85.20
61086;BME280;46967;48.876;2.136;2023-02-20T01:20:20;102777.19;;;5.14;85.44
61086;BME280;46967;48.876;2.136;2023-02-20T01:22:45;102783.09;;;5.08;85.95
61086;BME280;46967;48.876;2.136;2023-02-20T01:25:11;102779.50;;;5.01;86.15
61086;BME280;46967;48.876;2.136;2023-02-20T01:27:36;102776.88;;;5.00;86.44
61086;BME280;46967;48.876;2.136;2023-02-20T01:30:01;102773.50;;;5.02;86.31
61086;BME280;46967;48.876;2.136;2023-02-20T01:32:27;102773.47;;;5.01;85.87
61086;BME280;46967;48.876;2.136;2023-02-20T01:34:52;102769.91;;;4.96;86.22
61086;BME280;46967;48.876;2.136;2023-02-20T01:37:18;102764.78;;;4.96;86.18
61086;BME280;46967;48.876;2.136;2023-02-20T01:39:46;102765.47;;;4.88;85.90
61086;BME280;46967;48.876;2.136;2023-02-20T01:42:15;102763.78;;;4.90;85.70
61086;BME280;46967;48.876;2.136;2023-02-20T01:44:42;102771.44;;;4.87;86.05
61086;BME280;46967;48.876;2.136;2023-02-20T01:47:11;102769.69;;;4.86;86.30
61086;BME280;46967;48.876;2.136;2023-02-20T01:49:43;102775.75;;;4.88;86.32
61086;BME280;46967;48.876;2.136;2023-02-20T01:52:30;102780.78;;;4.84;86.77
61086;BME280;46967;48.876;2.136;2023-02-20T01:55:01;102786.81;;;4.86;87.13
61086;BME280;46967;48.876;2.136;2023-02-20T01:57:29;102784.22;;;4.84;86.83
61086;BME280;46967;48.876;2.136;2023-02-20T02:00:00;102786.66;;;4.80;87.33
61086;BME280;46967;48.876;2.136;2023-02-20T02:02:27;102802.72;;;4.71;88.15
61086;BME280;46967;48.876;2.136;2023-02-20T02:04:54;102811.16;;;4.65;88.76
61086;BME280;46967;48.876;2.136;2023-02-20T02:07:20;102818.09;;;4.68;88.59
61086;BME280;46967;48.876;2.136;2023-02-20T02:09:55;102813.84;;;4.70;87.75
61086;BME280;46967;48.876;2.136;2023-02-20T02:12:23;102808.69;;;4.68;87.05
61086;BME280;46967;48.876;2.136;2023-02-20T02:14:48;102808.69;;;4.68;87.43
61086;BME280;46967;48.876;2.136;2023-02-20T02:17:24;102799.19;;;4.67;86.95
61086;BME280;46967;48.876;2.136;2023-02-20T02:31:49;102773.22;;;4.58;86.88
61086;BME280;46967;48.876;2.136;2023-02-20T02:37:27;102761.03;;;4.49;87.43
61086;BME280;46967;48.876;2.136;2023-02-20T02:40:25;102754.22;;;4.51;88.03
61086;BME280;46967;48.876;2.136;2023-02-20T02:45:52;102755.09;;;4.53;86.95
61086;BME280;46967;48.876;2.136;2023-02-20T02:48:28;102739.59;;;4.49;86.84
61086;BME280;46967;48.876;2.136;2023-02-20T02:51:02;102737.75;;;4.45;86.83
61086;BME280;46967;48.876;2.136;2023-02-20T02:53:30;102727.44;;;4.43;86.69
61086;BME280;46967;48.876;2.136;2023-02-20T02:55:55;102729.91;;;4.40;87.32
61086;BME280;46967;48.876;2.136;2023-02-20T02:58:21;102732.44;;;4.39;87.12
61086;BME280;46967;48.876;2.136;2023-02-20T03:00:58;102726.59;;;4.44;87.50
61086;BME280;46967;48.876;2.136;2023-02-20T03:03:28;102721.53;;;4.47;87.45
61086;BME280;46967;48.876;2.136;2023-02-20T03:06:20;102730.00;;;4.43;87.48
61086;BME280;46967;48.876;2.136;2023-02-20T03:08:53;102724.06;;;4.46;87.73
61086;BME280;46967;48.876;2.136;2023-02-20T03:11:24;102719.66;;;4.42;87.48
61086;BME280;46967;48.876;2.136;2023-02-20T03:19:43;102709.09;;;4.31;88.11
61086;BME280;46967;48.876;2.136;2023-02-20T03:24:54;102709.19;;;4.34;87.41
61086;BME280;46967;48.876;2.136;2023-02-20T03:27:41;102702.31;;;4.34;87.41
61086;BME280;46967;48.876;2.136;2023-02-20T03:30:22;102696.31;;;4.34;87.26
61086;BME280;46967;48.876;2.136;2023-02-20T03:32:53;102692.81;;;4.30;87.52
61086;BME280;46967;48.876;2.136;2023-02-20T03:35:42;102698.00;;;4.32;87.34
61086;BME280;46967;48.876;2.136;2023-02-20T03:38:28;102694.56;;;4.33;86.99
61086;BME280;46967;48.876;2.136;2023-02-20T03:41:14;102692.00;;;4.31;87.42
61086;BME280;46967;48.876;2.136;2023-02-20T03:43:59;102682.53;;;4.30;87.19
61086;BME280;46967;48.876;2.136;2023-02-20T03:46:26;102684.25;;;4.30;87.28
61086;BME280;46967;48.876;2.136;2023-02-20T03:48:57;102684.13;;;4.25;87.20
61086;BME280;46967;48.876;2.136;2023-02-20T03:51:25;102684.94;;;4.24;87.60
61086;BME280;46967;48.876;2.136;2023-02-20T03:53:51;102678.94;;;4.24;87.46
61086;BME280;46967;48.876;2.136;2023-02-20T03:56:21;102674.66;;;4.24;87.45
61086;BME280;46967;48.876;2.136;2023-02-20T03:59:03;102669.56;;;4.26;87.69
61086;BME280;46967;48.876;2.136;2023-02-20T04:01:31;102680.56;;;4.22;87.66
61086;BME280;46967;48.876;2.136;2023-02-20T04:03:58;102681.44;;;4.21;88.17
61086;BME280;46967;48.876;2.136;2023-02-20T04:06:27;102677.88;;;4.17;87.61
61086;BME280;46967;48.876;2.136;2023-02-20T04:08:59;102671.06;;;4.17;87.81
61086;BME280;46967;48.876;2.136;2023-02-20T04:14:00;102669.22;;;4.13;87.77
61086;BME280;46967;48.876;2.136;2023-02-20T04:16:26;102659.75;;;4.11;87.99
61086;BME280;46967;48.876;2.136;2023-02-20T04:18:52;102657.88;;;4.05;88.20
61086;BME280;46967;48.876;2.136;2023-02-20T04:21:21;102663.78;;;4.03;88.05
61086;BME280;46967;48.876;2.136;2023-02-20T04:23:51;102666.19;;;3.95;87.88
61086;BME280;46967;48.876;2.136;2023-02-20T04:26:21;102670.38;;;3.93;88.59
61086;BME280;46967;48.876;2.136;2023-02-20T04:28:48;102676.31;;;3.90;88.45
61086;BME280;46967;48.876;2.136;2023-02-20T04:31:15;102668.66;;;3.92;88.68
61086;BME280;46967;48.876;2.136;2023-02-20T04:33:42;102671.19;;;3.90;88.27
61086;BME280;46967;48.876;2.136;2023-02-20T04:36:07;102673.81;;;3.92;88.03
61086;BME280;46967;48.876;2.136;2023-02-20T04:38:33;102672.81;;;3.88;87.94
61086;BME280;46967;48.876;2.136;2023-02-20T04:40:58;102671.09;;;3.87;88.00
61086;BME280;46967;48.876;2.136;2023-02-20T04:43:24;102671.97;;;3.88;88.41
61086;BME280;46967;48.876;2.136;2023-02-20T04:45:49;102671.88;;;3.85;89.30
61086;BME280;46967;48.876;2.136;2023-02-20T04:48:14;102674.41;;;3.83;89.01
61086;BME280;46967;48.876;2.136;2023-02-20T04:50:40;102669.13;;;3.78;88.84
61086;BME280;46967;48.876;2.136;2023-02-20T04:53:05;102678.59;;;3.79;89.05
61086;BME280;46967;48.876;2.136;2023-02-20T04:55:31;102672.56;;;3.79;88.51
61086;BME280;46967;48.876;2.136;2023-02-20T04:57:56;102667.44;;;3.79;89.12
61086;BME280;46967;48.876;2.136;2023-02-20T05:00:23;102665.66;;;3.76;88.93
61086;BME280;46967;48.876;2.136;2023-02-20T05:02:50;102663.00;;;3.73;89.36
61086;BME280;46967;48.876;2.136;2023-02-20T05:05:24;102665.44;;;3.69;88.96
61086;BME280;46967;48.876;2.136;2023-02-20T05:07:54;102667.06;;;3.65;88.92
61086;BME280;46967;48.876;2.136;2023-02-20T05:10:20;102667.91;;;3.66;88.86
61086;BME280;46967;48.876;2.136;2023-02-20T05:12:46;102665.34;;;3.66;89.50
61086;BME280;46967;48.876;2.136;2023-02-20T05:15:12;102667.06;;;3.65;89.31
61086;BME280;46967;48.876;2.136;2023-02-20T05:17:38;102658.50;;;3.66;88.77
61086;BME280;46967;48.876;2.136;2023-02-20T05:20:04;102662.69;;;3.62;88.88
61086;BME280;46967;48.876;2.136;2023-02-20T05:22:29;102666.00;;;3.58;88.83
61086;BME280;46967;48.876;2.136;2023-02-20T05:24:55;102660.03;;;3.59;88.93
61086;BME280;46967;48.876;2.136;2023-02-20T05:27:22;102653.16;;;3.58;88.46
61086;BME280;46967;48.876;2.136;2023-02-20T05:29:55;102648.81;;;3.56;88.36
61086;BME280;46967;48.876;2.136;2023-02-20T05:32:24;102652.19;;;3.55;88.02
61086;BME280;46967;48.876;2.136;2023-02-20T05:34:50;102649.59;;;3.53;87.81
61086;BME280;46967;48.876;2.136;2023-02-20T05:37:17;102647.06;;;3.55;87.63
61086;BME280;46967;48.876;2.136;2023-02-20T05:39:43;102649.69;;;3.56;88.15
61086;BME280;46967;48.876;2.136;2023-02-20T05:42:09;102637.59;;;3.52;88.17
61086;BME280;46967;48.876;2.136;2023-02-20T05:44:35;102640.88;;;3.48;88.01
61086;BME280;46967;48.876;2.136;2023-02-20T05:47:01;102639.84;;;3.41;88.07
61086;BME280;46967;48.876;2.136;2023-02-20T05:49:26;102644.97;;;3.41;88.44
61086;BME280;46967;48.876;2.136;2023-02-20T05:51:54;102642.31;;;3.38;88.68
61086;BME280;46967;48.876;2.136;2023-02-20T05:54:20;102641.47;;;3.38;88.42
61086;BME280;46967;48.876;2.136;2023-02-20T05:56:46;102640.63;;;3.39;88.46
61086;BME280;46967;48.876;2.136;2023-02-20T05:59:13;102647.50;;;3.40;88.46
61086;BME280;46967;48.876;2.136;2023-02-20T06:01:38;102641.41;;;3.36;88.59
61086;BME280;46967;48.876;2.136;2023-02-20T06:04:04;102643.03;;;3.34;88.44
61086;BME280;46967;48.876;2.136;2023-02-20T06:06:40;102638.72;;;3.32;88.71
61086;BME280;46967;48.876;2.136;2023-02-20T06:09:08;102639.53;;;3.31;88.09
61086;BME280;46967;48.876;2.136;2023-02-20T06:11:40;102635.06;;;3.25;88.14
61086;BME280;46967;48.876;2.136;2023-02-20T06:14:06;102645.38;;;3.26;88.27
61086;BME280;46967;48.876;2.136;2023-02-20T06:16:32;102647.03;;;3.24;88.31
61086;BME280;46967;48.876;2.136;2023-02-20T06:18:58;102633.34;;;3.24;87.94
61086;BME280;46967;48.876;2.136;2023-02-20T06:21:25;102635.06;;;3.25;87.42
61086;BME280;46967;48.876;2.136;2023-02-20T06:23:51;102630.75;;;3.22;87.59
61086;BME280;46967;48.876;2.136;2023-02-20T06:26:18;102642.63;;;3.20;87.48
61086;BME280;46967;48.876;2.136;2023-02-20T06:28:43;102640.72;;;3.13;87.91
61086;BME280;46967;48.876;2.136;2023-02-20T06:31:10;102643.38;;;3.16;88.28
61086;BME280;46967;48.876;2.136;2023-02-20T06:33:36;102636.44;;;3.14;87.94
61086;BME280;46967;48.876;2.136;2023-02-20T06:36:02;102645.81;;;3.12;88.33
61086;BME280;46967;48.876;2.136;2023-02-20T06:38:28;102644.06;;;3.11;88.21
61086;BME280;46967;48.876;2.136;2023-02-20T06:40:53;102652.59;;;3.10;88.60
61086;BME280;46967;48.876;2.136;2023-02-20T06:43:19;102653.50;;;3.12;88.10
61086;BME280;46967;48.876;2.136;2023-02-20T06:45:45;102649.22;;;3.12;87.77
61086;BME280;46967;48.876;2.136;2023-02-20T06:48:11;102657.97;;;3.17;87.67
61086;BME280;46967;48.876;2.136;2023-02-20T06:50:39;102654.50;;;3.17;87.87
61086;BME280;46967;48.876;2.136;2023-02-20T06:53:05;102662.19;;;3.17;88.30
61086;BME280;46967;48.876;2.136;2023-02-20T06:55:31;102659.72;;;3.20;88.83
61086;BME280;46967;48.876;2.136;2023-02-20T06:57:58;102652.16;;;3.24;89.11
61086;BME280;46967;48.876;2.136;2023-02-20T07:00:23;102655.50;;;3.22;89.02
61086;BME280;46967;48.876;2.136;2023-02-20T07:02:49;102649.75;;;3.29;89.18
61086;BME280;46967;48.876;2.136;2023-02-20T07:05:15;102650.66;;;3.31;89.67
61086;BME280;46967;48.876;2.136;2023-02-20T07:07:40;102655.06;;;3.35;90.18
61086;BME280;46967;48.876;2.136;2023-02-20T07:10:06;102663.53;;;3.33;90.47
61086;BME280;46967;48.876;2.136;2023-02-20T07:12:31;102663.63;;;3.36;90.84
61086;BME280;46967;48.876;2.136;2023-02-20T07:14:58;102661.28;;;3.43;91.43
61086;BME280;46967;48.876;2.136;2023-02-20T07:17:24;102670.94;;;3.51;91.85
61086;BME280;46967;48.876;2.136;2023-02-20T07:19:49;102676.31;;;3.60;92.43
61086;BME280;46967;48.876;2.136;2023-02-20T07:22:14;102671.34;;;3.66;93.50
61086;BME280;46967;48.876;2.136;2023-02-20T07:24:40;102675.03;;;3.74;93.82
61086;BME280;46967;48.876;2.136;2023-02-20T07:27:07;102676.88;;;3.80;94.43
61086;BME280;46967;48.876;2.136;2023-02-20T07:29:35;102673.75;;;3.90;95.49
61086;BME280;46967;48.876;2.136;2023-02-20T07:32:00;102682.59;;;4.00;96.02
61086;BME280;46967;48.876;2.136;2023-02-20T07:34:25;102673.38;;;4.08;96.75
61086;BME280;46967;48.876;2.136;2023-02-20T07:36:51;102682.97;;;4.15;97.23
61086;BME280;46967;48.876;2.136;2023-02-20T07:39:16;102686.53;;;4.19;97.62
61086;BME280;46967;48.876;2.136;2023-02-20T07:41:41;102694.34;;;4.24;98.06
61086;BME280;46967;48.876;2.136;2023-02-20T07:44:07;102697.91;;;4.29;98.71
61086;BME280;46967;48.876;2.136;2023-02-20T07:46:32;102694.63;;;4.34;99.16
61086;BME280;46967;48.876;2.136;2023-02-20T07:49:02;102698.31;;;4.44;99.30
61086;BME280;46967;48.876;2.136;2023-02-20T07:51:28;102690.69;;;4.47;99.43
61086;BME280;46967;48.876;2.136;2023-02-20T07:53:54;102693.44;;;4.55;99.32
61086;BME280;46967;48.876;2.136;2023-02-20T07:56:20;102692.75;;;4.62;99.01
61086;BME280;46967;48.876;2.136;2023-02-20T07:58:47;102700.56;;;4.65;98.50
61086;BME280;46967;48.876;2.136;2023-02-20T08:01:13;102697.25;;;4.71;98.45
61086;BME280;46967;48.876;2.136;2023-02-20T08:03:38;102695.66;;;4.75;98.50
61086;BME280;46967;48.876;2.136;2023-02-20T08:06:04;102686.38;;;4.81;98.14
61086;BME280;46967;48.876;2.136;2023-02-20T08:08:29;102691.66;;;4.87;97.84
61086;BME280;46967;48.876;2.136;2023-02-20T08:10:55;102702.16;;;4.95;97.96
61086;BME280;46967;48.876;2.136;2023-02-20T08:13:20;102701.38;;;4.99;97.74
61086;BME280;46967;48.876;2.136;2023-02-20T08:15:46;102706.66;;;5.05;98.19
61086;BME280;46967;48.876;2.136;2023-02-20T08:18:12;102705.84;;;5.06;98.09
61086;BME280;46967;48.876;2.136;2023-02-20T08:20:38;102709.44;;;5.15;98.53
61086;BME280;46967;48.876;2.136;2023-02-20T08:23:04;102704.47;;;5.22;98.67
61086;BME280;46967;48.876;2.136;2023-02-20T08:25:30;102703.72;;;5.26;98.64
61086;BME280;46967;48.876;2.136;2023-02-20T08:27:57;102712.41;;;5.32;98.85
61086;BME280;46967;48.876;2.136;2023-02-20T08:30:25;102712.53;;;5.36;98.95
61086;BME280;46967;48.876;2.136;2023-02-20T08:32:51;102710.00;;;5.38;98.73
61086;BME280;46967;48.876;2.136;2023-02-20T08:35:17;102704.19;;;5.48;99.11
61086;BME280;46967;48.876;2.136;2023-02-20T08:37:43;102720.59;;;5.53;98.88
61086;BME280;46967;48.876;2.136;2023-02-20T08:40:10;102711.19;;;5.54;98.97
61086;BME280;46967;48.876;2.136;2023-02-20T08:42:36;102709.63;;;5.62;98.57
61086;BME280;46967;48.876;2.136;2023-02-20T08:45:03;102710.59;;;5.67;98.34
61086;BME280;46967;48.876;2.136;2023-02-20T08:47:29;102703.84;;;5.74;98.90
61086;BME280;46967;48.876;2.136;2023-02-20T08:49:54;102705.75;;;5.81;99.15
61086;BME280;46967;48.876;2.136;2023-02-20T08:52:19;102706.69;;;5.86;99.07
61086;BME280;46967;48.876;2.136;2023-02-20T08:54:46;102693.94;;;5.92;99.11
61086;BME280;46967;48.876;2.136;2023-02-20T08:57:13;102700.97;;;5.98;99.28
61086;BME280;46967;48.876;2.136;2023-02-20T08:59:39;102699.34;;;6.03;99.41
61086;BME280;46967;48.876;2.136;2023-02-20T09:02:05;102695.88;;;6.03;99.38
61086;BME280;46967;48.876;2.136;2023-02-20T09:04:31;102700.25;;;6.07;99.44
61086;BME280;46967;48.876;2.136;2023-02-20T09:06:56;102697.84;;;6.16;99.61
61086;BME280;46967;48.876;2.136;2023-02-20T09:09:21;102699.75;;;6.26;99.43
61086;BME280;46967;48.876;2.136;2023-02-20T09:11:47;102699.00;;;6.32;99.11
61086;BME280;46967;48.876;2.136;2023-02-20T09:14:12;102699.03;;;6.33;99.14
61086;BME280;46967;48.876;2.136;2023-02-20T09:16:38;102697.41;;;6.40;98.94
61086;BME280;46967;48.876;2.136;2023-02-20T09:19:07;102692.53;;;6.56;99.36
61086;BME280;46967;48.876;2.136;2023-02-20T09:21:33;102695.25;;;6.63;98.62
61086;BME280;46967;48.876;2.136;2023-02-20T09:23:58;102687.66;;;6.73;98.39
61086;BME280;46967;48.876;2.136;2023-02-20T09:26:23;102684.31;;;6.80;98.32
61086;BME280;46967;48.876;2.136;2023-02-20T09:28:49;102697.44;;;6.92;97.28
61086;BME280;46967;48.876;2.136;2023-02-20T09:31:14;102698.44;;;7.02;97.30
61086;BME280;46967;48.876;2.136;2023-02-20T09:33:46;102700.31;;;7.11;96.12
61086;BME280;46967;48.876;2.136;2023-02-20T09:36:11;102690.91;;;7.16;96.17
61086;BME280;46967;48.876;2.136;2023-02-20T09:38:37;102697.84;;;7.21;96.27
61086;BME280;46967;48.876;2.136;2023-02-20T09:41:03;102697.03;;;7.24;96.62
61086;BME280;46967;48.876;2.136;2023-02-20T09:43:47;102684.25;;;7.33;96.39
61086;BME280;46967;48.876;2.136;2023-02-20T09:46:20;102683.56;;;7.48;95.99
61086;BME280;46967;48.876;2.136;2023-02-20T09:49:20;102689.00;;;7.67;95.60
61086;BME280;46967;48.876;2.136;2023-02-20T09:51:58;102686.59;;;7.82;94.96
61086;BME280;46967;48.876;2.136;2023-02-20T09:54:32;102683.31;;;7.97;93.67
61086;BME280;46967;48.876;2.136;2023-02-20T09:57:02;102679.09;;;8.07;94.73
61086;BME280;46967;48.876;2.136;2023-02-20T09:59:34;102682.75;;;8.27;94.01
61086;BME280;46967;48.876;2.136;2023-02-20T10:02:39;102680.22;;;8.32;92.80
61086;BME280;46967;48.876;2.136;2023-02-20T10:05:20;102683.66;;;8.32;92.58
61086;BME280;46967;48.876;2.136;2023-02-20T10:07:48;102674.09;;;8.22;91.77
61086;BME280;46967;48.876;2.136;2023-02-20T10:10:26;102676.44;;;8.01;93.20
61086;BME280;46967;48.876;2.136;2023-02-20T10:15:50;102678.34;;;8.17;91.90
61086;BME280;46967;48.876;2.136;2023-02-20T10:18:51;102681.91;;;8.27;90.70
61086;BME280;46967;48.876;2.136;2023-02-20T10:21:37;102679.09;;;8.07;90.77
61086;BME280;46967;48.876;2.136;2023-02-20T10:24:33;102686.16;;;8.22;90.11
61086;BME280;46967;48.876;2.136;2023-02-20T10:29:57;102673.66;;;8.68;88.35
61086;BME280;46967;48.876;2.136;2023-02-20T10:32:39;102677.22;;;8.84;86.63
61086;BME280;46967;48.876;2.136;2023-02-20T10:35:10;102673.00;;;8.98;85.77
61086;BME280;46967;48.876;2.136;2023-02-20T10:37:43;102686.06;;;9.11;86.33
61086;BME280;46967;48.876;2.136;2023-02-20T10:42:45;102673.13;;;9.23;83.90
61086;BME280;46967;48.876;2.136;2023-02-20T10:45:21;102684.44;;;9.31;82.94
61086;BME280;46967;48.876;2.136;2023-02-20T10:48:12;102682.75;;;9.41;82.10
61086;BME280;46967;48.876;2.136;2023-02-20T10:55:57;102686.25;;;9.52;81.23
61086;BME280;46967;48.876;2.136;2023-02-20T10:58:48;102679.41;;;9.64;81.43
61086;BME280;46967;48.876;2.136;2023-02-20T11:01:22;102681.19;;;9.77;80.88
61086;BME280;46967;48.876;2.136;2023-02-20T11:06:29;102676.84;;;9.73;80.67
61086;BME280;46967;48.876;2.136;2023-02-20T11:08:55;102676.00;;;9.83;79.50
61086;BME280;46967;48.876;2.136;2023-02-20T11:11:39;102671.72;;;9.94;79.80
61086;BME280;46967;48.876;2.136;2023-02-20T11:14:12;102669.13;;;10.01;79.11
61086;BME280;46967;48.876;2.136;2023-02-20T11:16:52;102675.19;;;9.96;78.88
61086;BME280;46967;48.876;2.136;2023-02-20T11:19:35;102663.91;;;9.82;78.99
61086;BME280;46967;48.876;2.136;2023-02-20T11:22:04;102653.56;;;10.01;78.05
61086;BME280;46967;48.876;2.136;2023-02-20T11:24:34;102661.38;;;10.10;78.26
61086;BME280;46967;48.876;2.136;2023-02-20T11:29:40;102649.22;;;9.92;78.04
61086;BME280;46967;48.876;2.136;2023-02-20T11:40:31;102649.25;;;10.01;77.47
61086;BME280;46967;48.876;2.136;2023-02-20T11:43:18;102650.97;;;10.02;77.24
61086;BME280;46967;48.876;2.136;2023-02-20T11:45:45;102642.31;;;9.95;76.64
61086;BME280;46967;48.876;2.136;2023-02-20T11:53:04;102638.00;;;9.93;76.51
61086;BME280;46967;48.876;2.136;2023-02-20T11:55:31;102629.31;;;9.86;75.98
61086;BME280;46967;48.876;2.136;2023-02-20T11:57:57;102632.81;;;9.97;76.20
61086;BME280;46967;48.876;2.136;2023-02-20T12:00:25;102638.91;;;10.06;76.12
61086;BME280;46967;48.876;2.136;2023-02-20T12:02:55;102626.78;;;10.19;74.83
61086;BME280;46967;48.876;2.136;2023-02-20T12:05:46;102628.50;;;10.18;74.55
61086;BME280;46967;48.876;2.136;2023-02-20T12:10:59;102618.13;;;10.27;72.86
61086;BME280;46967;48.876;2.136;2023-02-20T12:13:26;102612.06;;;10.02;73.88
61086;BME280;46967;48.876;2.136;2023-02-20T12:16:00;102606.88;;;9.91;74.52
61086;BME280;46967;48.876;2.136;2023-02-20T12:18:31;102606.88;;;9.88;73.95
61086;BME280;46967;48.876;2.136;2023-02-20T12:21:19;102596.41;;;9.59;75.17
61086;BME280;46967;48.876;2.136;2023-02-20T12:23:57;102586.06;;;9.64;74.97
61086;BME280;46967;48.876;2.136;2023-02-20T12:26:33;102576.56;;;9.73;75.20
61086;BME280;46967;48.876;2.136;2023-02-20T12:37:45;102565.34;;;9.71;73.97
61086;BME280;46967;48.876;2.136;2023-02-20T12:40:18;102566.19;;;9.73;74.16
61086;BME280;46967;48.876;2.136;2023-02-20T12:43:00;102560.16;;;9.76;74.16
61086;BME280;46967;48.876;2.136;2023-02-20T12:46:15;102554.16;;;10.11;73.72
61086;BME280;46967;48.876;2.136;2023-02-20T12:52:05;102540.28;;;10.32;71.94
61086;BME280;46967;48.876;2.136;2023-02-20T12:54:46;102538.56;;;10.51;71.36
61086;BME280;46967;48.876;2.136;2023-02-20T12:57:20;102530.81;;;10.34;71.85
61086;BME280;46967;48.876;2.136;2023-02-20T13:00:00;102539.44;;;10.31;71.76
61086;BME280;46967;48.876;2.136;2023-02-20T13:02:43;102538.56;;;10.23;71.29
61086;BME280;46967;48.876;2.136;2023-02-20T13:05:12;102531.66;;;10.24;72.07
61086;BME280;46967;48.876;2.136;2023-02-20T13:07:53;102531.66;;;10.50;71.17
61086;BME280;46967;48.876;2.136;2023-02-20T13:10:23;102522.13;;;10.20;71.78
61086;BME280;46967;48.876;2.136;2023-02-20T13:12:50;102520.41;;;10.40;71.40
61086;BME280;46967;48.876;2.136;2023-02-20T13:21:11;102510.84;;;10.59;70.45
61086;BME280;46967;48.876;2.136;2023-02-20T13:23:38;102497.78;;;10.84;70.22
61086;BME280;46967;48.876;2.136;2023-02-20T13:28:50;102494.34;;;10.82;69.75
61086;BME280;46967;48.876;2.136;2023-02-20T13:31:44;102485.75;;;10.66;70.09
61086;BME280;46967;48.876;2.136;2023-02-20T13:36:39;102477.81;;;10.98;69.01
61086;BME280;46967;48.876;2.136;2023-02-20T13:47:15;102460.56;;;10.90;68.88
61086;BME280;46967;48.876;2.136;2023-02-20T13:52:42;102462.22;;;11.01;67.19
61086;BME280;46967;48.876;2.136;2023-02-20T13:57:48;102450.09;;;10.96;68.10
61086;BME280;46967;48.876;2.136;2023-02-20T14:03:27;102440.63;;;10.87;67.93
61086;BME280;46967;48.876;2.136;2023-02-20T14:08:29;102432.72;;;11.09;67.92
61086;BME280;46967;48.876;2.136;2023-02-20T14:11:12;102432.78;;;11.01;67.45
61086;BME280;46967;48.876;2.136;2023-02-20T14:13:41;102427.63;;;10.95;67.19
61086;BME280;46967;48.876;2.136;2023-02-20T14:16:26;102425.97;;;10.74;68.27
61086;BME280;46967;48.876;2.136;2023-02-20T14:18:55;102422.50;;;10.76;68.71
61086;BME280;46967;48.876;2.136;2023-02-20T14:21:21;102413.84;;;10.77;69.15
61086;BME280;46967;48.876;2.136;2023-02-20T14:23:48;102407.75;;;10.78;68.54
61086;BME280;46967;48.876;2.136;2023-02-20T14:26:26;102401.72;;;10.76;68.10
61086;BME280;46967;48.876;2.136;2023-02-20T14:28:54;102395.53;;;10.97;68.15
61086;BME280;46967;48.876;2.136;2023-02-20T14:31:40;102388.66;;;10.95;67.33
61086;BME280;46967;48.876;2.136;2023-02-20T14:34:51;102386.00;;;11.01;67.25
61086;BME280;46967;48.876;2.136;2023-02-20T14:37:23;102373.06;;;10.96;67.38
61086;BME280;46967;48.876;2.136;2023-02-20T14:42:27;102359.72;;;11.41;66.40
61086;BME280;46967;48.876;2.136;2023-02-20T14:45:00;102358.88;;;11.39;65.97
61086;BME280;46967;48.876;2.136;2023-02-20T14:47:26;102353.66;;;11.42;65.96
61086;BME280;46967;48.876;2.136;2023-02-20T14:49:52;102355.44;;;11.32;66.39
61086;BME280;46967;48.876;2.136;2023-02-20T14:52:23;102348.38;;;11.48;65.32
61086;BME280;46967;48.876;2.136;2023-02-20T14:55:00;102339.63;;;11.60;65.65
61086;BME280;46967;48.876;2.136;2023-02-20T14:57:27;102335.84;;;11.92;63.88
61086;BME280;46967;48.876;2.136;2023-02-20T15:00:23;102339.78;;;12.25;62.66